Time;durP1;ratioP1;P1;durP2;ratioP2;P2;SDS_P1;SDS_P2;PMS_P1;PMS_P2;Temp;Humidity;BMP_temperature;BMP_pressure;BME280_temperature;BME280_humidity;BME280_pressure;Samples;Min_cycle;Max_cycle;Signal;HPM_P1;HPM_P2
2023/08/26 00:00:28;;;;;;;7.17;5.97;;;;;;;;;;5030674;28;20203;-52
2023/08/26 00:02:54;;;;;;;6.47;5.70;;;;;;;;;;5030828;28;20702;-52
2023/08/26 00:05:21;;;;;;;7.80;7.00;;;;;;;;;;5029026;28;20243;-53
2023/08/26 00:07:47;;;;;;;7.37;5.83;;;;;;;;;;5027312;28;20207;-52
2023/08/26 00:10:13;;;;;;;8.30;6.30;;;;;;;;;;5030991;28;20280;-53
2023/08/26 00:12:40;;;;;;;7.60;6.20;;;;;;;;;;5030888;28;20745;-52
2023/08/26 00:15:06;;;;;;;11.10;7.73;;;;;;;;;;5030783;28;20793;-53
2023/08/26 00:17:33;;;;;;;9.27;8.23;;;;;;;;;;5030908;28;20244;-51
2023/08/26 00:19:59;;;;;;;12.23;10.57;;;;;;;;;;5034081;28;20208;-51
2023/08/26 00:22:25;;;;;;;14.00;11.03;;;;;;;;;;5034125;28;20238;-51
2023/08/26 00:24:51;;;;;;;11.70;10.33;;;;;;;;;;5034596;28;20188;-51
2023/08/26 00:27:17;;;;;;;12.67;11.40;;;;;;;;;;5034454;28;20545;-51
2023/08/26 00:29:45;;;;;;;12.53;11.33;;;;;;;;;;5034173;28;20211;-51
2023/08/26 00:32:11;;;;;;;18.63;13.93;;;;;;;;;;5034506;28;20304;-51
2023/08/26 00:34:37;;;;;;;15.77;12.33;;;;;;;;;;5034053;28;20672;-51
2023/08/26 00:37:03;;;;;;;15.60;12.83;;;;;;;;;;5034249;28;20303;-51
2023/08/26 00:39:29;;;;;;;15.93;13.73;;;;;;;;;;5034105;28;20196;-51
2023/08/26 00:41:55;;;;;;;18.27;15.43;;;;;;;;;;5034044;28;20233;-51
2023/08/26 00:44:22;;;;;;;19.90;16.27;;;;;;;;;;5033853;28;20235;-51
2023/08/26 00:46:50;;;;;;;18.50;15.07;;;;;;;;;;5034400;28;20211;-51
2023/08/26 00:49:17;;;;;;;16.23;14.00;;;;;;;;;;5034084;28;20236;-51
2023/08/26 00:51:43;;;;;;;17.83;15.57;;;;;;;;;;5033932;28;20259;-51
2023/08/26 00:54:09;;;;;;;17.20;15.03;;;;;;;;;;5033962;28;20217;-51
2023/08/26 00:56:36;;;;;;;16.87;14.87;;;;;;;;;;5033764;28;20279;-51
2023/08/26 00:59:02;;;;;;;16.80;15.00;;;;;;;;;;5034002;28;20200;-51
2023/08/26 01:01:30;;;;;;;17.23;15.43;;;;;;;;;;5033915;28;20193;-51
2023/08/26 01:03:57;;;;;;;22.47;18.23;;;;;;;;;;5033933;28;20200;-51
2023/08/26 01:06:23;;;;;;;20.70;18.37;;;;;;;;;;5033771;28;20236;-51
2023/08/26 01:08:50;;;;;;;24.10;19.03;;;;;;;;;;5033559;28;20201;-51
2023/08/26 01:11:21;;;;;;;17.40;15.60;;;;;;;;;;5033545;28;20207;-51
2023/08/26 01:13:51;;;;;;;21.77;19.07;;;;;;;;;;5033456;28;20227;-51
2023/08/26 01:16:18;;;;;;;21.77;19.17;;;;;;;;;;5033600;28;20204;-51
2023/08/26 01:18:44;;;;;;;23.20;18.67;;;;;;;;;;5033379;28;20679;-51
2023/08/26 01:21:13;;;;;;;22.90;20.33;;;;;;;;;;5033504;28;20690;-51
2023/08/26 01:23:41;;;;;;;24.50;21.90;;;;;;;;;;5033436;28;20200;-51
2023/08/26 01:26:08;;;;;;;22.30;20.10;;;;;;;;;;5033437;28;20263;-51
2023/08/26 01:28:34;;;;;;;22.97;20.57;;;;;;;;;;5033173;28;20203;-51
2023/08/26 01:31:02;;;;;;;19.77;17.23;;;;;;;;;;5032562;28;20192;-51
2023/08/26 01:33:31;;;;;;;19.90;17.90;;;;;;;;;;5033010;28;20232;-52
2023/08/26 01:36:00;;;;;;;18.30;16.50;;;;;;;;;;5033210;28;20279;-51
2023/08/26 01:38:26;;;;;;;16.77;15.13;;;;;;;;;;5033129;28;20236;-51
2023/08/26 01:40:56;;;;;;;17.93;15.93;;;;;;;;;;5033085;28;20287;-51
2023/08/26 01:43:22;;;;;;;18.23;16.27;;;;;;;;;;5029326;28;20221;-51
2023/08/26 01:45:48;;;;;;;19.07;16.80;;;;;;;;;;5032708;28;20319;-51
2023/08/26 01:48:14;;;;;;;18.43;16.33;;;;;;;;;;5032927;28;20204;-51
2023/08/26 01:50:40;;;;;;;18.23;16.33;;;;;;;;;;5032874;28;20206;-51
2023/08/26 01:53:08;;;;;;;18.07;16.20;;;;;;;;;;5032688;28;20196;-51
2023/08/26 01:55:34;;;;;;;21.47;19.30;;;;;;;;;;5032747;28;20235;-52
2023/08/26 01:58:01;;;;;;;18.37;16.47;;;;;;;;;;5032588;28;20197;-51
2023/08/26 02:00:27;;;;;;;22.33;20.00;;;;;;;;;;5032732;28;20224;-51
2023/08/26 02:02:53;;;;;;;23.80;21.20;;;;;;;;;;5032724;28;20275;-51
2023/08/26 02:05:19;;;;;;;22.53;20.13;;;;;;;;;;5032597;28;20211;-51
2023/08/26 02:07:45;;;;;;;27.63;23.20;;;;;;;;;;5032434;28;20193;-51
2023/08/26 02:10:12;;;;;;;22.23;19.97;;;;;;;;;;5032500;28;20602;-51
2023/08/26 02:12:38;;;;;;;25.37;22.13;;;;;;;;;;5032423;28;20213;-52
2023/08/26 02:15:06;;;;;;;26.83;23.87;;;;;;;;;;5032382;28;20225;-51
2023/08/26 02:17:33;;;;;;;32.00;27.27;;;;;;;;;;5032334;28;20207;-51
2023/08/26 02:19:59;;;;;;;36.00;29.03;;;;;;;;;;5032353;28;20229;-51
2023/08/26 02:22:25;;;;;;;38.30;30.13;;;;;;;;;;5032299;28;20642;-51
2023/08/26 02:24:51;;;;;;;33.60;28.03;;;;;;;;;;5032173;28;20750;-51
2023/08/26 02:27:17;;;;;;;30.73;26.47;;;;;;;;;;5032072;28;20671;-51
2023/08/26 02:29:43;;;;;;;27.33;24.40;;;;;;;;;;5031976;28;20251;-51
2023/08/26 02:32:12;;;;;;;30.77;26.63;;;;;;;;;;5032255;28;20199;-52
2023/08/26 02:34:39;;;;;;;31.30;28.20;;;;;;;;;;5032014;28;20306;-52
2023/08/26 02:37:05;;;;;;;32.13;28.73;;;;;;;;;;5032040;28;20211;-51
2023/08/26 02:39:31;;;;;;;31.87;27.73;;;;;;;;;;5031884;28;20207;-52
2023/08/26 02:41:57;;;;;;;29.73;24.37;;;;;;;;;;5031771;28;20200;-52
2023/08/26 02:44:23;;;;;;;35.17;29.27;;;;;;;;;;5031841;28;20250;-52
2023/08/26 02:46:49;;;;;;;32.47;28.93;;;;;;;;;;5031796;28;20302;-52
2023/08/26 02:49:16;;;;;;;34.17;28.63;;;;;;;;;;5031825;28;20294;-52
2023/08/26 02:51:42;;;;;;;36.27;30.53;;;;;;;;;;5031727;28;20208;-51
2023/08/26 02:54:08;;;;;;;33.17;29.40;;;;;;;;;;5031868;28;20314;-51
2023/08/26 02:56:34;;;;;;;32.57;28.37;;;;;;;;;;5031666;28;20718;-51
2023/08/26 02:59:00;;;;;;;34.70;29.37;;;;;;;;;;5029818;28;20213;-51
2023/08/26 03:01:30;;;;;;;38.50;30.97;;;;;;;;;;5031778;28;20291;-51
2023/08/26 03:03:56;;;;;;;36.03;30.00;;;;;;;;;;5031658;28;20282;-51
2023/08/26 03:06:23;;;;;;;34.83;29.37;;;;;;;;;;5031595;28;20251;-51
2023/08/26 03:08:49;;;;;;;34.90;27.97;;;;;;;;;;5031473;28;20213;-51
2023/08/26 03:11:15;;;;;;;34.77;29.53;;;;;;;;;;5031655;28;20235;-52
2023/08/26 03:13:41;;;;;;;35.17;29.57;;;;;;;;;;5031420;28;20275;-51
2023/08/26 03:16:08;;;;;;;36.60;30.17;;;;;;;;;;5031581;28;20193;-51
2023/08/26 03:18:34;;;;;;;34.70;29.37;;;;;;;;;;5031490;28;20209;-51
2023/08/26 03:21:02;;;;;;;34.83;29.87;;;;;;;;;;5031249;28;20615;-51
2023/08/26 03:23:30;;;;;;;34.50;29.40;;;;;;;;;;5031487;28;20189;-52
2023/08/26 03:25:56;;;;;;;31.23;25.87;;;;;;;;;;5031524;28;20200;-51
2023/08/26 03:28:22;;;;;;;35.37;29.03;;;;;;;;;;5031290;28;20202;-51
2023/08/26 03:30:48;;;;;;;29.50;26.03;;;;;;;;;;5031179;28;20706;-53
2023/08/26 03:33:14;;;;;;;35.80;29.23;;;;;;;;;;5031235;28;20315;-51
2023/08/26 03:35:40;;;;;;;35.33;29.03;;;;;;;;;;5031082;28;20312;-52
2023/08/26 03:38:06;;;;;;;30.47;26.93;;;;;;;;;;5031304;28;20295;-51
2023/08/26 03:40:33;;;;;;;32.33;28.57;;;;;;;;;;5031125;28;20616;-53
2023/08/26 03:43:01;;;;;;;28.37;25.10;;;;;;;;;;5031239;28;20820;-51
2023/08/26 03:45:29;;;;;;;31.93;25.73;;;;;;;;;;5031186;28;20243;-53
2023/08/26 03:47:55;;;;;;;30.23;25.03;;;;;;;;;;5031310;28;20666;-52
2023/08/26 03:50:22;;;;;;;26.80;23.80;;;;;;;;;;5031248;28;20200;-51
2023/08/26 03:52:48;;;;;;;24.23;21.67;;;;;;;;;;5031086;28;20203;-51
2023/08/26 03:55:14;;;;;;;25.87;23.17;;;;;;;;;;5034878;28;20232;-53
2023/08/26 03:57:41;;;;;;;29.97;25.87;;;;;;;;;;5035022;28;20619;-52
2023/08/26 04:00:08;;;;;;;25.73;23.17;;;;;;;;;;5035005;28;20726;-52
2023/08/26 04:02:34;;;;;;;30.13;25.80;;;;;;;;;;5034862;28;20618;-53
2023/08/26 04:05:00;;;;;;;28.73;25.07;;;;;;;;;;5034767;28;20676;-52
2023/08/26 04:07:26;;;;;;;27.80;25.00;;;;;;;;;;5034996;28;20200;-53
2023/08/26 04:09:52;;;;;;;26.57;23.77;;;;;;;;;;5034669;28;20207;-52
2023/08/26 04:12:18;;;;;;;25.67;22.87;;;;;;;;;;5034622;28;20283;-52
2023/08/26 04:14:45;;;;;;;27.30;24.10;;;;;;;;;;5034482;28;20239;-53
2023/08/26 04:17:12;;;;;;;26.93;24.13;;;;;;;;;;5034737;28;20218;-52
2023/08/26 04:19:38;;;;;;;23.90;21.40;;;;;;;;;;5034638;28;20222;-52
2023/08/26 04:22:04;;;;;;;22.10;19.87;;;;;;;;;;5034594;28;20226;-52
2023/08/26 04:24:31;;;;;;;24.63;22.13;;;;;;;;;;5034440;28;20200;-53
2023/08/26 04:26:57;;;;;;;23.60;21.10;;;;;;;;;;5034482;28;20227;-53
2023/08/26 04:29:23;;;;;;;25.23;22.53;;;;;;;;;;5034565;28;20302;-53
2023/08/26 04:31:51;;;;;;;25.20;22.47;;;;;;;;;;5034160;28;20199;-53
2023/08/26 04:34:17;;;;;;;24.83;22.33;;;;;;;;;;5034246;28;20785;-53
2023/08/26 04:36:43;;;;;;;22.10;19.80;;;;;;;;;;5034065;28;20310;-52
2023/08/26 04:39:12;;;;;;;25.00;22.37;;;;;;;;;;5034030;28;20671;-53
2023/08/26 04:41:38;;;;;;;25.33;22.83;;;;;;;;;;5034067;28;20189;-53
2023/08/26 04:44:05;;;;;;;28.03;23.07;;;;;;;;;;5033913;28;20306;-53
2023/08/26 04:46:31;;;;;;;26.97;22.57;;;;;;;;;;5034096;28;20293;-53
2023/08/26 04:48:58;;;;;;;23.20;20.80;;;;;;;;;;5034024;28;20198;-53
2023/08/26 04:51:24;;;;;;;26.37;22.33;;;;;;;;;;5034190;28;20730;-52
2023/08/26 04:53:50;;;;;;;22.87;20.50;;;;;;;;;;5033827;28;20235;-52
2023/08/26 04:56:17;;;;;;;23.63;19.53;;;;;;;;;;5033884;28;20259;-53
2023/08/26 04:58:43;;;;;;;31.33;20.23;;;;;;;;;;5033912;28;20208;-52
2023/08/26 05:01:09;;;;;;;25.00;21.27;;;;;;;;;;5034055;28;20294;-52
2023/08/26 05:03:35;;;;;;;21.90;19.60;;;;;;;;;;5033698;28;20262;-52
2023/08/26 05:06:03;;;;;;;20.70;18.50;;;;;;;;;;5032424;28;20725;-53
2023/08/26 05:08:30;;;;;;;24.03;18.93;;;;;;;;;;5033679;28;20235;-52
2023/08/26 05:10:56;;;;;;;22.13;19.90;;;;;;;;;;5033631;28;20197;-53
2023/08/26 05:13:22;;;;;;;20.60;18.47;;;;;;;;;;5033632;28;20197;-53
2023/08/26 05:15:48;;;;;;;21.07;18.50;;;;;;;;;;5033420;28;20199;-52
2023/08/26 05:18:15;;;;;;;21.57;19.37;;;;;;;;;;5033523;28;20195;-53
2023/08/26 05:20:43;;;;;;;20.50;18.40;;;;;;;;;;5033563;28;20204;-53
2023/08/26 05:23:10;;;;;;;20.70;18.67;;;;;;;;;;5033509;28;20200;-53
2023/08/26 05:25:36;;;;;;;17.23;15.60;;;;;;;;;;5033350;28;20213;-53
2023/08/26 05:28:04;;;;;;;17.67;15.90;;;;;;;;;;5033411;28;20235;-53
2023/08/26 05:30:30;;;;;;;20.27;17.40;;;;;;;;;;5033182;28;20205;-54
2023/08/26 05:32:56;;;;;;;19.37;17.37;;;;;;;;;;5033216;28;20432;-52
2023/08/26 05:35:22;;;;;;;20.00;16.50;;;;;;;;;;5033216;28;20310;-52
2023/08/26 05:37:48;;;;;;;20.07;18.10;;;;;;;;;;5033076;28;20218;-52
2023/08/26 05:40:16;;;;;;;18.73;16.90;;;;;;;;;;5033142;28;20251;-53
2023/08/26 05:42:42;;;;;;;18.60;15.97;;;;;;;;;;5032919;28;20224;-52
2023/08/26 05:45:09;;;;;;;15.40;13.90;;;;;;;;;;5033006;28;20240;-53
2023/08/26 05:47:35;;;;;;;15.50;13.77;;;;;;;;;;5032819;28;20196;-51
2023/08/26 05:50:01;;;;;;;17.83;16.10;;;;;;;;;;5032912;28;20307;-50
2023/08/26 05:52:27;;;;;;;18.27;16.33;;;;;;;;;;5032856;28;20663;-52
2023/08/26 05:54:53;;;;;;;16.77;15.00;;;;;;;;;;5032728;28;20231;-52
2023/08/26 05:57:20;;;;;;;16.27;14.07;;;;;;;;;;5032704;28;20207;-52
2023/08/26 05:59:46;;;;;;;16.70;14.87;;;;;;;;;;5032614;28;20204;-52
2023/08/26 06:02:12;;;;;;;13.73;12.33;;;;;;;;;;5032752;28;20196;-52
2023/08/26 06:04:38;;;;;;;15.17;13.53;;;;;;;;;;5032614;28;20199;-52
2023/08/26 06:07:04;;;;;;;16.23;14.53;;;;;;;;;;5032407;28;20204;-52
2023/08/26 06:09:31;;;;;;;15.80;13.77;;;;;;;;;;5032512;28;20231;-52
2023/08/26 06:11:57;;;;;;;14.87;13.20;;;;;;;;;;5032466;28;20223;-53
2023/08/26 06:14:24;;;;;;;14.57;13.13;;;;;;;;;;5032408;28;20225;-52
2023/08/26 06:16:50;;;;;;;14.87;12.17;;;;;;;;;;5032036;28;20207;-52
2023/08/26 06:19:16;;;;;;;16.23;14.63;;;;;;;;;;5032424;28;20300;-52
2023/08/26 06:21:42;;;;;;;15.87;14.20;;;;;;;;;;5032297;28;20204;-53
2023/08/26 06:24:08;;;;;;;18.93;17.03;;;;;;;;;;5032434;28;20283;-52
2023/08/26 06:26:34;;;;;;;20.17;16.23;;;;;;;;;;5032114;28;20199;-52
2023/08/26 06:29:00;;;;;;;18.87;16.23;;;;;;;;;;5032125;28;20718;-53
2023/08/26 06:31:28;;;;;;;18.17;16.37;;;;;;;;;;5032062;28;20764;-53
2023/08/26 06:33:54;;;;;;;18.50;16.37;;;;;;;;;;5031883;28;20224;-52
2023/08/26 06:36:20;;;;;;;20.27;17.07;;;;;;;;;;5032105;28;20599;-49
2023/08/26 06:38:46;;;;;;;20.83;17.47;;;;;;;;;;5031940;28;20200;-49
2023/08/26 06:41:12;;;;;;;27.47;20.93;;;;;;;;;;5031951;28;20212;-51
2023/08/26 06:43:38;;;;;;;12.27;10.73;;;;;;;;;;5031900;28;20210;-51
2023/08/26 06:46:04;;;;;;;13.13;8.93;;;;;;;;;;5031695;28;20777;-52
2023/08/26 06:48:32;;;;;;;10.13;7.87;;;;;;;;;;5031914;28;20279;-52
2023/08/26 06:50:58;;;;;;;11.10;8.37;;;;;;;;;;5031772;28;20206;-52
2023/08/26 06:53:24;;;;;;;11.23;8.73;;;;;;;;;;5031906;28;20289;-52
2023/08/26 06:55:50;;;;;;;9.03;8.13;;;;;;;;;;5031531;28;20320;-52
2023/08/26 06:58:16;;;;;;;13.03;9.67;;;;;;;;;;5031689;28;20730;-52
2023/08/26 07:00:43;;;;;;;11.37;9.90;;;;;;;;;;5031746;28;20195;-52
2023/08/26 07:03:10;;;;;;;12.80;11.50;;;;;;;;;;5031577;28;20201;-52
2023/08/26 07:05:38;;;;;;;13.53;12.10;;;;;;;;;;5031674;28;20200;-53
2023/08/26 07:08:04;;;;;;;14.87;11.93;;;;;;;;;;5031529;28;20215;-52
2023/08/26 07:10:30;;;;;;;14.23;12.70;;;;;;;;;;5031555;28;20620;-52
2023/08/26 07:12:56;;;;;;;15.00;13.50;;;;;;;;;;5031341;28;20683;-52
2023/08/26 07:15:22;;;;;;;15.10;13.67;;;;;;;;;;5031286;28;20265;-52
2023/08/26 07:17:48;;;;;;;14.50;12.97;;;;;;;;;;5031224;28;20229;-52
2023/08/26 07:20:14;;;;;;;15.37;13.73;;;;;;;;;;5031374;28;20532;-52
2023/08/26 07:22:41;;;;;;;15.57;13.87;;;;;;;;;;5031558;28;20591;-52
2023/08/26 07:25:08;;;;;;;15.73;12.80;;;;;;;;;;5031453;28;20288;-52
2023/08/26 07:27:34;;;;;;;11.07;10.07;;;;;;;;;;5031289;28;20218;-53
2023/08/26 07:30:00;;;;;;;10.33;9.33;;;;;;;;;;5034994;28;20200;-53
2023/08/26 07:32:26;;;;;;;16.40;8.17;;;;;;;;;;5035586;28;20606;-52
2023/08/26 07:34:53;;;;;;;11.40;7.97;;;;;;;;;;5035391;28;20231;-52
2023/08/26 07:37:19;;;;;;;8.53;7.00;;;;;;;;;;5035434;28;20209;-52
2023/08/26 07:39:48;;;;;;;8.43;6.83;;;;;;;;;;5035200;28;20198;-52
2023/08/26 07:42:14;;;;;;;8.53;6.80;;;;;;;;;;5034905;28;20690;-53
2023/08/26 07:44:40;;;;;;;9.70;6.73;;;;;;;;;;5035185;28;20310;-52
2023/08/26 07:47:06;;;;;;;7.80;5.50;;;;;;;;;;5034985;28;20667;-51
2023/08/26 07:49:32;;;;;;;9.13;5.53;;;;;;;;;;5035177;28;20204;-51
2023/08/26 07:51:58;;;;;;;8.23;5.60;;;;;;;;;;5034973;28;20201;-51
2023/08/26 07:54:24;;;;;;;6.47;5.33;;;;;;;;;;5035088;28;20716;-53
2023/08/26 07:56:52;;;;;;;6.83;5.23;;;;;;;;;;5034863;28;20204;-52
2023/08/26 07:59:18;;;;;;;7.30;4.60;;;;;;;;;;5035011;28;20214;-52
2023/08/26 08:01:44;;;;;;;5.73;3.97;;;;;;;;;;5034753;28;20232;-52
2023/08/26 08:04:10;;;;;;;4.23;3.43;;;;;;;;;;5034993;28;20192;-51
2023/08/26 08:06:36;;;;;;;7.63;3.30;;;;;;;;;;5034804;28;20682;-52
2023/08/26 08:09:02;;;;;;;8.83;3.73;;;;;;;;;;5034683;28;20204;-53
2023/08/26 08:11:28;;;;;;;6.37;3.67;;;;;;;;;;5034599;28;20666;-52
2023/08/26 08:13:55;;;;;;;6.43;3.10;;;;;;;;;;5034675;28;20207;-52
2023/08/26 08:16:21;;;;;;;4.47;3.03;;;;;;;;;;5034678;28;20721;-52
2023/08/26 08:18:47;;;;;;;5.60;3.20;;;;;;;;;;5032572;28;20288;-52
2023/08/26 08:21:13;;;;;;;8.53;3.57;;;;;;;;;;5034373;28;20229;-52
2023/08/26 08:23:43;;;;;;;5.27;3.13;;;;;;;;;;5034198;28;20347;-51
2023/08/26 08:26:09;;;;;;;7.17;3.07;;;;;;;;;;5034305;28;20569;-52
2023/08/26 08:28:35;;;;;;;5.27;3.00;;;;;;;;;;5034240;28;20199;-51
2023/08/26 08:31:02;;;;;;;5.37;2.67;;;;;;;;;;5034024;28;20293;-51
2023/08/26 08:33:29;;;;;;;6.73;2.80;;;;;;;;;;5031909;28;20347;-51
2023/08/26 08:35:55;;;;;;;8.13;4.07;;;;;;;;;;5033253;28;20227;-51
2023/08/26 08:38:21;;;;;;;4.83;2.50;;;;;;;;;;5033906;28;20621;-51
2023/08/26 08:40:47;;;;;;;5.97;2.67;;;;;;;;;;5033558;28;20207;-51
2023/08/26 08:43:14;;;;;;;7.80;2.97;;;;;;;;;;5033636;28;20705;-51
2023/08/26 08:45:40;;;;;;;9.23;2.30;;;;;;;;;;5033710;28;20227;-51
2023/08/26 08:48:07;;;;;;;7.67;3.20;;;;;;;;;;5033680;28;20204;-53
2023/08/26 08:50:34;;;;;;;7.33;2.30;;;;;;;;;;5033677;28;20741;-51
2023/08/26 08:53:01;;;;;;;6.53;2.50;;;;;;;;;;5033269;28;20196;-52
2023/08/26 08:55:27;;;;;;;7.43;2.50;;;;;;;;;;5033572;28;20335;-52
2023/08/26 08:57:53;;;;;;;3.77;2.10;;;;;;;;;;5033441;28;20216;-52
2023/08/26 09:00:20;;;;;;;4.13;2.47;;;;;;;;;;5033716;28;20317;-52
2023/08/26 09:02:47;;;;;;;4.10;2.30;;;;;;;;;;5033569;28;20278;-52
2023/08/26 09:05:14;;;;;;;7.17;2.53;;;;;;;;;;5033821;28;20542;-52
2023/08/26 09:07:41;;;;;;;4.20;1.97;;;;;;;;;;5033528;28;20569;-52
2023/08/26 09:10:10;;;;;;;3.27;2.03;;;;;;;;;;5033557;28;20200;-52
2023/08/26 09:12:36;;;;;;;4.87;1.90;;;;;;;;;;5032680;28;20200;-52
2023/08/26 09:15:03;;;;;;;5.07;2.10;;;;;;;;;;5033257;28;20234;-52
2023/08/26 09:17:30;;;;;;;5.90;2.07;;;;;;;;;;5033562;28;20275;-52
2023/08/26 09:19:58;;;;;;;6.47;2.00;;;;;;;;;;5033593;28;20620;-52
2023/08/26 09:22:25;;;;;;;5.43;2.07;;;;;;;;;;5033688;28;20578;-52
2023/08/26 09:24:54;;;;;;;4.43;1.87;;;;;;;;;;5033183;28;20198;-52
2023/08/26 09:27:20;;;;;;;4.73;1.70;;;;;;;;;;5033316;28;20205;-52
2023/08/26 09:29:46;;;;;;;4.17;1.80;;;;;;;;;;5033309;28;20207;-52
2023/08/26 09:32:12;;;;;;;4.03;2.00;;;;;;;;;;5033380;28;20199;-52
2023/08/26 09:34:38;;;;;;;9.27;1.90;;;;;;;;;;5033336;28;20228;-52
2023/08/26 09:37:04;;;;;;;3.87;3.17;;;;;;;;;;5033107;28;20197;-52
2023/08/26 09:39:32;;;;;;;4.00;2.03;;;;;;;;;;5032966;28;20730;-52
2023/08/26 09:41:59;;;;;;;3.43;1.70;;;;;;;;;;5032916;28;20212;-52
2023/08/26 09:44:27;;;;;;;4.77;1.60;;;;;;;;;;5032553;28;20322;-52
2023/08/26 09:46:56;;;;;;;2.73;1.80;;;;;;;;;;5032174;28;20202;-52
2023/08/26 09:49:22;;;;;;;5.93;2.00;;;;;;;;;;5032751;28;20212;-52
2023/08/26 09:51:50;;;;;;;4.10;1.93;;;;;;;;;;5032068;28;20206;-52
2023/08/26 09:54:20;;;;;;;5.23;1.60;;;;;;;;;;5032529;28;20221;-53
2023/08/26 09:56:48;;;;;;;3.53;1.83;;;;;;;;;;5028150;28;20587;-52
2023/08/26 09:59:14;;;;;;;4.57;2.00;;;;;;;;;;5032013;28;20251;-51
2023/08/26 10:01:41;;;;;;;4.00;1.80;;;;;;;;;;5032518;28;20197;-50
2023/08/26 10:04:10;;;;;;;3.23;1.50;;;;;;;;;;5032218;28;20593;-50
2023/08/26 10:06:39;;;;;;;3.33;1.57;;;;;;;;;;5032302;28;20378;-51
2023/08/26 10:09:07;;;;;;;5.13;1.77;;;;;;;;;;5031899;28;20205;-51
2023/08/26 10:11:35;;;;;;;3.73;1.70;;;;;;;;;;5032144;28;20465;-51
2023/08/26 10:14:05;;;;;;;5.43;1.83;;;;;;;;;;5032020;28;20205;-50
2023/08/26 10:16:31;;;;;;;2.37;1.40;;;;;;;;;;5032013;28;20205;-53
2023/08/26 10:18:58;;;;;;;3.53;1.90;;;;;;;;;;5031836;28;20194;-52
2023/08/26 10:21:24;;;;;;;5.77;1.90;;;;;;;;;;5032047;28;20196;-52
2023/08/26 10:23:51;;;;;;;5.10;1.60;;;;;;;;;;5031611;28;20213;-52
2023/08/26 10:26:19;;;;;;;5.83;3.20;;;;;;;;;;5031983;28;20423;-52
2023/08/26 10:28:45;;;;;;;3.13;1.50;;;;;;;;;;5031913;28;20591;-53
2023/08/26 10:31:14;;;;;;;3.70;1.77;;;;;;;;;;5031835;28;20689;-53
2023/08/26 10:34:02;;;;;;;2.77;1.43;;;;;;;;;;5031800;28;20207;-53
2023/08/26 10:36:28;;;;;;;3.53;2.03;;;;;;;;;;5031700;28;20193;-52
2023/08/26 10:38:55;;;;;;;4.30;1.73;;;;;;;;;;5031822;28;20197;-53
2023/08/26 10:41:21;;;;;;;4.47;1.57;;;;;;;;;;5031523;28;20200;-51
2023/08/26 10:43:52;;;;;;;4.63;2.00;;;;;;;;;;5031091;28;20593;-51
2023/08/26 10:46:31;;;;;;;2.80;1.40;;;;;;;;;;5031602;28;20222;-51
2023/08/26 10:48:59;;;;;;;4.07;1.70;;;;;;;;;;5031614;28;20220;-51
2023/08/26 10:51:25;;;;;;;4.03;1.60;;;;;;;;;;5031522;28;20216;-52
2023/08/26 10:53:51;;;;;;;3.87;1.70;;;;;;;;;;5031559;28;20288;-52
2023/08/26 10:56:21;;;;;;;3.13;1.57;;;;;;;;;;5031133;28;20597;-52
2023/08/26 10:58:48;;;;;;;3.10;1.50;;;;;;;;;;5030944;28;20214;-52
2023/08/26 11:01:15;;;;;;;2.87;1.30;;;;;;;;;;5031066;28;20210;-52
2023/08/26 11:03:43;;;;;;;1.93;1.30;;;;;;;;;;5030272;28;20257;-52
2023/08/26 11:06:12;;;;;;;2.70;1.33;;;;;;;;;;5031348;28;20674;-52
2023/08/26 11:08:39;;;;;;;3.50;1.73;;;;;;;;;;5028462;28;20207;-52
2023/08/26 11:11:05;;;;;;;2.87;1.70;;;;;;;;;;5031023;28;20191;-52
2023/08/26 11:13:32;;;;;;;4.03;1.50;;;;;;;;;;5031148;28;20200;-51
2023/08/26 11:15:58;;;;;;;3.43;1.40;;;;;;;;;;5030982;28;20235;-52
2023/08/26 11:18:25;;;;;;;2.10;1.27;;;;;;;;;;5031009;28;20215;-52
2023/08/26 11:20:52;;;;;;;5.07;1.23;;;;;;;;;;5030929;28;20616;-51
2023/08/26 11:23:19;;;;;;;3.00;1.63;;;;;;;;;;5031188;28;20207;-51
2023/08/26 11:25:45;;;;;;;4.20;1.50;;;;;;;;;;5030839;28;20193;-51
2023/08/26 11:28:11;;;;;;;3.10;1.70;;;;;;;;;;5031182;28;20681;-51
2023/08/26 11:30:37;;;;;;;2.93;1.50;;;;;;;;;;5031183;28;20239;-51
2023/08/26 11:33:08;;;;;;;2.70;1.60;;;;;;;;;;5030534;28;20216;-51
2023/08/26 11:35:34;;;;;;;2.33;1.37;;;;;;;;;;5030808;28;20220;-51
2023/08/26 11:38:03;;;;;;;2.80;1.50;;;;;;;;;;5030668;28;20213;-51
2023/08/26 11:40:29;;;;;;;3.33;1.50;;;;;;;;;;5030754;28;20209;-52
2023/08/26 11:42:55;;;;;;;2.33;1.40;;;;;;;;;;5030719;28;20213;-51
2023/08/26 11:45:20;;;;;;;3.83;1.73;;;;;;;;;;5030722;28;20241;-51
2023/08/26 11:47:47;;;;;;;3.87;2.13;;;;;;;;;;5030763;28;20698;-51
2023/08/26 11:50:17;;;;;;;3.97;1.60;;;;;;;;;;5030776;28;20216;-51
2023/08/26 11:52:43;;;;;;;3.27;1.43;;;;;;;;;;5026397;28;20196;-51
2023/08/26 11:55:10;;;;;;;3.57;1.60;;;;;;;;;;5030249;28;20220;-51
2023/08/26 11:57:38;;;;;;;3.23;1.70;;;;;;;;;;5028550;28;20233;-51
2023/08/26 12:00:09;;;;;;;2.33;1.30;;;;;;;;;;5028509;28;20232;-51
2023/08/26 12:02:35;;;;;;;2.23;1.40;;;;;;;;;;5030341;28;20197;-51
2023/08/26 12:05:02;;;;;;;1.90;1.30;;;;;;;;;;5029875;28;20204;-51
2023/08/26 12:07:29;;;;;;;2.90;1.60;;;;;;;;;;5029163;28;20205;-52
2023/08/26 12:09:55;;;;;;;3.33;1.70;;;;;;;;;;5030337;28;20255;-52
2023/08/26 12:12:23;;;;;;;5.40;1.77;;;;;;;;;;5030509;28;20289;-52
2023/08/26 12:14:49;;;;;;;2.53;1.53;;;;;;;;;;5031660;28;20222;-52
2023/08/26 12:17:16;;;;;;;4.23;1.50;;;;;;;;;;5034064;28;20225;-51
2023/08/26 12:19:42;;;;;;;3.10;1.60;;;;;;;;;;5034284;28;20187;-51
2023/08/26 12:22:09;;;;;;;2.87;1.40;;;;;;;;;;5034005;28;20206;-52
2023/08/26 12:24:36;;;;;;;1.90;1.53;;;;;;;;;;5034122;28;20194;-51
2023/08/26 12:27:06;;;;;;;6.50;1.97;;;;;;;;;;5034005;28;20209;-52
2023/08/26 12:29:34;;;;;;;2.83;1.53;;;;;;;;;;5031676;28;20599;-51
2023/08/26 12:32:00;;;;;;;2.63;1.60;;;;;;;;;;5033671;28;20645;-52
2023/08/26 12:34:26;;;;;;;3.27;1.40;;;;;;;;;;5034005;28;20253;-52
2023/08/26 12:36:52;;;;;;;3.20;1.50;;;;;;;;;;5033947;28;20195;-52
2023/08/26 12:39:18;;;;;;;4.80;4.03;;;;;;;;;;5033567;28;20690;-52
2023/08/26 12:41:44;;;;;;;3.47;1.77;;;;;;;;;;5033742;28;20194;-51
2023/08/26 12:44:10;;;;;;;2.40;1.50;;;;;;;;;;5032710;28;20239;-51
2023/08/26 12:46:37;;;;;;;2.70;1.30;;;;;;;;;;5031915;28;20207;-52
2023/08/26 12:49:04;;;;;;;4.63;1.90;;;;;;;;;;5032756;28;20280;-51
2023/08/26 12:51:30;;;;;;;4.13;1.60;;;;;;;;;;5024820;28;20425;-52
2023/08/26 12:53:57;;;;;;;2.63;1.40;;;;;;;;;;5036384;28;20199;-51
2023/08/26 12:56:23;;;;;;;1.90;1.50;;;;;;;;;;5032704;28;20318;-51
2023/08/26 12:58:49;;;;;;;2.87;1.60;;;;;;;;;;5027851;28;20231;-52
2023/08/26 13:01:16;;;;;;;2.13;1.40;;;;;;;;;;5030857;28;20723;-49
2023/08/26 13:03:43;;;;;;;3.93;1.40;;;;;;;;;;5029164;28;20212;-51
2023/08/26 13:06:09;;;;;;;3.97;1.30;;;;;;;;;;5029656;28;20204;-51
2023/08/26 13:08:36;;;;;;;2.17;1.47;;;;;;;;;;5029448;28;20227;-51
2023/08/26 13:11:02;;;;;;;3.37;1.40;;;;;;;;;;5030053;28;20207;-50
2023/08/26 13:13:29;;;;;;;4.43;1.60;;;;;;;;;;5026965;28;20205;-51
2023/08/26 13:15:56;;;;;;;5.07;1.70;;;;;;;;;;5032467;28;20228;-50
2023/08/26 13:18:22;;;;;;;4.33;3.40;;;;;;;;;;5029810;28;20209;-50
2023/08/26 13:20:50;;;;;;;4.57;4.17;;;;;;;;;;5028794;28;20687;-51
2023/08/26 13:23:16;;;;;;;1.90;1.30;;;;;;;;;;5029895;28;20204;-50
2023/08/26 13:25:42;;;;;;;3.13;1.60;;;;;;;;;;5032116;28;20193;-51
2023/08/26 13:28:09;;;;;;;3.57;1.60;;;;;;;;;;5032763;28;20259;-51
2023/08/26 13:30:35;;;;;;;1.70;1.40;;;;;;;;;;5032650;28;20196;-51
2023/08/26 13:33:01;;;;;;;3.10;1.30;;;;;;;;;;5032501;28;20271;-51
2023/08/26 13:35:27;;;;;;;3.17;1.43;;;;;;;;;;5032831;28;20226;-50
2023/08/26 13:37:54;;;;;;;1.87;1.27;;;;;;;;;;5032702;28;20193;-51
2023/08/26 13:40:21;;;;;;;3.37;1.80;;;;;;;;;;5032278;28;20212;-51
2023/08/26 13:42:47;;;;;;;2.67;1.60;;;;;;;;;;5032068;28;20710;-51
2023/08/26 13:45:13;;;;;;;2.43;1.37;;;;;;;;;;5032162;28;20228;-50
2023/08/26 13:47:40;;;;;;;2.50;1.40;;;;;;;;;;5032502;28;20200;-50
2023/08/26 13:50:06;;;;;;;4.07;1.60;;;;;;;;;;5031855;28;20254;-50
2023/08/26 13:52:32;;;;;;;3.13;1.57;;;;;;;;;;5029158;28;20198;-49
2023/08/26 13:55:00;;;;;;;2.53;1.43;;;;;;;;;;5032276;28;20309;-51
2023/08/26 13:57:26;;;;;;;3.33;1.50;;;;;;;;;;5032692;28;20204;-50
2023/08/26 13:59:52;;;;;;;3.27;1.70;;;;;;;;;;5032293;28;20197;-50
2023/08/26 14:02:20;;;;;;;2.77;1.27;;;;;;;;;;5032569;28;20270;-51
2023/08/26 14:04:46;;;;;;;3.10;1.13;;;;;;;;;;5032353;28;20203;-49
2023/08/26 14:07:12;;;;;;;2.40;1.50;;;;;;;;;;5032327;28;20197;-50
2023/08/26 14:09:38;;;;;;;3.53;1.70;;;;;;;;;;5028908;28;20204;-52
2023/08/26 14:12:06;;;;;;;1.83;1.60;;;;;;;;;;5032329;28;20203;-52
2023/08/26 14:14:32;;;;;;;2.00;1.33;;;;;;;;;;5032134;28;20221;-50
2023/08/26 14:16:58;;;;;;;3.10;1.40;;;;;;;;;;5032162;28;20208;-50
2023/08/26 14:19:24;;;;;;;4.17;1.40;;;;;;;;;;5032446;28;20258;-51
2023/08/26 14:21:50;;;;;;;2.03;1.40;;;;;;;;;;5032127;28;20223;-50
2023/08/26 14:24:16;;;;;;;1.87;1.30;;;;;;;;;;5032067;28;20718;-51
2023/08/26 14:26:42;;;;;;;2.30;1.40;;;;;;;;;;5024213;28;20648;-52